createdAt,value
2023-04-17T00:01:18.584Z,25.50
2023-04-17T00:03:47.446Z,25.80
2023-04-17T00:06:16.453Z,26.10
2023-04-17T00:08:44.992Z,27.10
2023-04-17T00:11:12.952Z,26.70
2023-04-17T00:13:44.161Z,23.90
2023-04-17T00:16:13.678Z,25.60
2023-04-17T00:18:42.883Z,26.20
2023-04-17T00:21:11.059Z,24.90
2023-04-17T00:23:39.649Z,25.80
2023-04-17T00:26:07.648Z,25.30
2023-04-17T00:28:35.638Z,24.70
2023-04-17T00:31:04.604Z,26.20
2023-04-17T00:33:32.839Z,25.50
2023-04-17T00:36:00.840Z,25.10
2023-04-17T00:38:29.418Z,24.70
2023-04-17T00:40:57.412Z,23.60
2023-04-17T00:43:25.496Z,24.80
2023-04-17T00:45:54.028Z,22.50
2023-04-17T00:48:24.208Z,24.00
2023-04-17T00:50:52.178Z,24.10
2023-04-17T00:53:20.555Z,23.50
2023-04-17T00:55:48.598Z,23.40
2023-04-17T00:58:16.880Z,23.00
2023-04-17T01:00:45.435Z,23.80
2023-04-17T01:03:14.527Z,22.90
2023-04-17T01:05:44.754Z,22.70
2023-04-17T01:08:12.668Z,22.20
2023-04-17T01:10:40.821Z,22.50
2023-04-17T01:13:09.574Z,20.10
2023-04-17T01:15:37.958Z,21.90
2023-04-17T01:18:06.844Z,22.20
2023-04-17T01:20:34.928Z,21.60
2023-04-17T01:23:02.919Z,20.70
2023-04-17T01:25:31.409Z,19.90
2023-04-17T01:27:59.319Z,21.80
2023-04-17T01:30:29.244Z,19.40
2023-04-17T01:33:03.688Z,20.90
2023-04-17T01:35:31.663Z,21.70
2023-04-17T01:37:59.983Z,22.10
2023-04-17T01:40:28.752Z,23.90
2023-04-17T01:42:57.449Z,21.90
2023-04-17T01:45:25.344Z,20.90
2023-04-17T01:47:53.984Z,21.20
2023-04-17T01:50:22.370Z,21.00
2023-04-17T01:52:50.708Z,20.80
2023-04-17T01:55:18.700Z,20.50
2023-04-17T01:57:47.598Z,19.20
2023-04-17T02:00:15.943Z,21.20
2023-04-17T02:02:44.367Z,20.90
2023-04-17T02:05:12.420Z,19.60
2023-04-17T02:07:40.855Z,19.90
2023-04-17T02:10:09.609Z,20.30
2023-04-17T02:12:38.248Z,19.30
2023-04-17T02:15:07.148Z,19.40
2023-04-17T02:17:35.682Z,19.20
2023-04-17T02:20:06.949Z,19.00
2023-04-17T02:22:35.037Z,18.20
2023-04-17T02:25:02.962Z,17.60
2023-04-17T02:27:31.252Z,17.30
2023-04-17T02:29:59.154Z,16.40
2023-04-17T02:32:27.145Z,16.50
2023-04-17T02:34:56.251Z,15.90
2023-04-17T02:37:24.206Z,16.00
2023-04-17T02:39:53.996Z,16.60
2023-04-17T02:42:21.900Z,16.00
2023-04-17T02:44:49.799Z,15.60
2023-04-17T02:47:17.815Z,16.00
2023-04-17T02:49:45.908Z,14.30
2023-04-17T02:52:14.081Z,14.80
2023-04-17T02:54:42.253Z,13.50
2023-04-17T02:57:11.000Z,14.20
2023-04-17T02:59:39.051Z,14.30
2023-04-17T03:02:07.070Z,13.50
2023-04-17T03:04:38.760Z,14.00
2023-04-17T03:07:10.537Z,13.10
2023-04-17T03:09:39.839Z,13.20
2023-04-17T03:12:07.907Z,13.10
2023-04-17T03:14:36.011Z,12.40
2023-04-17T03:17:03.870Z,11.60
2023-04-17T03:19:31.936Z,12.20
2023-04-17T03:22:01.740Z,11.00
2023-04-17T03:24:31.716Z,12.20
2023-04-17T03:27:01.133Z,11.50
2023-04-17T03:31:59.355Z,11.10
2023-04-17T03:34:29.131Z,11.90
2023-04-17T03:36:59.372Z,12.00
2023-04-17T03:39:27.409Z,12.10
2023-04-17T03:41:56.059Z,10.80
2023-04-17T03:44:24.050Z,10.50
2023-04-17T03:46:51.946Z,10.90
2023-04-17T03:49:20.088Z,9.60
2023-04-17T03:51:49.988Z,10.70
2023-04-17T03:54:19.604Z,11.00
2023-04-17T03:56:47.707Z,10.90
2023-04-17T03:59:15.833Z,10.20
2023-04-17T04:01:47.407Z,10.50
2023-04-17T04:04:19.355Z,10.40
2023-04-17T04:06:49.503Z,10.10
2023-04-17T04:09:20.356Z,10.70
2023-04-17T04:11:48.341Z,9.50
2023-04-17T04:14:16.784Z,9.30
2023-04-17T04:16:47.131Z,8.60
2023-04-17T04:19:16.327Z,8.30
2023-04-17T04:21:45.152Z,8.80
2023-04-17T04:24:14.486Z,9.40
2023-04-17T04:26:43.483Z,8.20
2023-04-17T04:29:13.964Z,8.10
2023-04-17T04:31:51.115Z,8.20
2023-04-17T04:34:21.771Z,7.70
2023-04-17T04:36:52.707Z,7.80
2023-04-17T04:39:37.978Z,7.30
2023-04-17T04:42:10.086Z,7.40
2023-04-17T04:45:07.906Z,7.00
2023-04-17T04:47:36.937Z,7.20
2023-04-17T04:50:05.776Z,7.00
2023-04-17T04:52:33.967Z,6.90
2023-04-17T04:55:05.905Z,6.70
2023-04-17T04:57:34.254Z,6.90
2023-04-17T05:00:06.433Z,6.80
2023-04-17T05:02:40.135Z,6.90
2023-04-17T05:05:11.166Z,6.40
2023-04-17T05:07:40.409Z,6.50
2023-04-17T05:10:10.980Z,6.40
2023-04-17T05:12:42.489Z,5.60
2023-04-17T05:15:11.392Z,5.60
2023-04-17T05:17:40.156Z,5.70
2023-04-17T05:20:18.937Z,5.50
2023-04-17T05:22:52.388Z,5.50
2023-04-17T05:25:20.835Z,6.00
2023-04-17T05:27:48.830Z,5.10
2023-04-17T05:30:17.834Z,5.40
2023-04-17T05:32:48.647Z,5.70
2023-04-17T05:35:42.573Z,5.30
2023-04-17T05:38:10.782Z,4.90
2023-04-17T05:40:39.025Z,5.70
2023-04-17T05:43:08.693Z,5.10
2023-04-17T05:45:37.119Z,5.10
2023-04-17T05:48:08.423Z,5.30
2023-04-17T05:50:37.539Z,5.30
2023-04-17T05:53:06.089Z,4.90
2023-04-17T05:55:37.736Z,4.60
2023-04-17T05:58:16.851Z,4.70
2023-04-17T06:00:52.554Z,4.90
2023-04-17T06:03:21.355Z,4.40
2023-04-17T06:05:53.251Z,4.50
2023-04-17T06:08:23.757Z,5.00
2023-04-17T06:10:52.628Z,4.80
2023-04-17T06:13:21.984Z,5.20
2023-04-17T06:15:51.588Z,5.30
2023-04-17T06:18:19.629Z,4.90
2023-04-17T06:20:47.686Z,4.80
2023-04-17T06:23:16.013Z,5.80
2023-04-17T06:25:44.338Z,5.20
2023-04-17T06:28:13.508Z,5.30
2023-04-17T06:30:41.516Z,5.00
2023-04-17T06:33:10.071Z,5.10
2023-04-17T06:35:38.369Z,6.00
2023-04-17T06:38:22.187Z,5.30
2023-04-17T06:40:52.153Z,5.50
2023-04-17T06:43:20.847Z,5.80
2023-04-17T06:45:48.989Z,5.20
2023-04-17T06:48:17.555Z,5.00
2023-04-17T06:50:45.906Z,5.00
2023-04-17T06:53:14.265Z,5.20
2023-04-17T06:55:42.221Z,5.90
2023-04-17T06:58:10.237Z,6.20
2023-04-17T07:00:38.180Z,6.60
2023-04-17T07:03:06.409Z,5.70
2023-04-17T07:05:35.751Z,6.30
2023-04-17T07:08:03.796Z,6.00
2023-04-17T07:10:31.970Z,6.00
2023-04-17T07:13:00.296Z,6.10
2023-04-17T07:15:31.701Z,5.80
2023-04-17T07:18:00.088Z,6.30
2023-04-17T07:20:28.292Z,5.50
2023-04-17T07:22:56.775Z,5.90
2023-04-17T07:25:24.922Z,6.20
2023-04-17T07:27:53.702Z,6.00
2023-04-17T07:30:21.646Z,5.40
2023-04-17T07:32:49.655Z,5.20
2023-04-17T07:35:17.663Z,4.90
2023-04-17T07:37:45.692Z,5.40
2023-04-17T07:40:14.730Z,4.80
2023-04-17T07:42:42.666Z,5.10
2023-04-17T07:45:11.647Z,5.60
2023-04-17T07:47:39.600Z,5.00
2023-04-17T07:50:07.964Z,5.10
2023-04-17T07:52:36.082Z,5.20
2023-04-17T07:55:04.373Z,4.80
2023-04-17T07:57:33.065Z,5.20
2023-04-17T08:00:01.119Z,5.20
2023-04-17T08:02:29.562Z,4.90
2023-04-17T08:04:58.467Z,4.90
2023-04-17T08:07:27.181Z,5.10
2023-04-17T08:09:55.600Z,4.60
2023-04-17T08:12:23.586Z,4.50
2023-04-17T08:14:51.671Z,5.10
2023-04-17T08:17:23.000Z,4.50
2023-04-17T08:19:53.718Z,4.50
2023-04-17T08:22:24.254Z,4.30
2023-04-17T08:24:57.509Z,4.90
2023-04-17T08:27:25.834Z,4.60
2023-04-17T08:29:54.011Z,4.70
2023-04-17T08:32:22.274Z,4.70
2023-04-17T08:34:50.251Z,4.60
2023-04-17T08:37:18.151Z,4.90
2023-04-17T08:39:46.098Z,4.40
2023-04-17T08:42:18.401Z,4.00
2023-04-17T08:44:47.061Z,3.80
2023-04-17T08:47:20.162Z,3.90
2023-04-17T08:49:50.601Z,3.90
2023-04-17T08:52:18.727Z,4.00
2023-04-17T08:54:48.884Z,4.20
2023-04-17T08:57:18.726Z,3.50
2023-04-17T08:59:47.030Z,3.30
2023-04-17T09:02:15.300Z,3.60
2023-04-17T09:04:44.632Z,3.60
2023-04-17T09:07:13.601Z,2.90
2023-04-17T09:09:49.156Z,3.20
2023-04-17T09:12:18.378Z,3.30
2023-04-17T09:14:46.405Z,3.40
2023-04-17T09:17:17.286Z,3.70
2023-04-17T09:20:08.969Z,3.80
2023-04-17T09:22:37.717Z,3.70
2023-04-17T09:25:19.534Z,3.90
2023-04-17T09:27:47.582Z,4.10
2023-04-17T09:30:15.821Z,3.50
2023-04-17T09:32:44.102Z,3.60
2023-04-17T09:35:27.816Z,3.30
2023-04-17T09:37:58.854Z,3.40
2023-04-17T09:40:28.709Z,3.50
2023-04-17T09:43:09.451Z,3.60
2023-04-17T09:48:12.278Z,4.00
2023-04-17T09:50:40.308Z,3.20
2023-04-17T09:53:08.355Z,3.60
2023-04-17T09:55:38.155Z,3.60
2023-04-17T09:58:07.559Z,3.70
2023-04-17T10:00:36.899Z,3.00
2023-04-17T10:03:05.110Z,3.30
2023-04-17T10:05:33.392Z,2.90
2023-04-17T10:08:01.508Z,3.00
2023-04-17T10:10:33.962Z,3.00
2023-04-17T10:13:03.761Z,2.80
2023-04-17T10:15:31.777Z,2.90
2023-04-17T10:18:20.650Z,3.00
2023-04-17T10:20:49.649Z,2.90
2023-04-17T10:23:26.420Z,2.70
2023-04-17T10:26:25.617Z,2.70
2023-04-17T10:28:54.384Z,2.70
2023-04-17T10:31:23.724Z,3.30
2023-04-17T10:33:55.136Z,4.00
2023-04-17T10:39:13.170Z,3.20
2023-04-17T10:42:02.062Z,3.10
2023-04-17T10:44:34.568Z,3.30
2023-04-17T10:47:10.036Z,3.20
2023-04-17T10:49:52.098Z,2.90
2023-04-17T10:52:41.870Z,2.60
2023-04-17T10:55:16.081Z,2.60
2023-04-17T10:57:56.488Z,3.10
2023-04-17T11:00:38.126Z,2.40
2023-04-17T11:03:06.721Z,2.40
2023-04-17T11:05:36.039Z,2.00
2023-04-17T11:08:04.874Z,2.10
2023-04-17T11:10:35.772Z,1.90
2023-04-17T11:13:03.757Z,1.90
2023-04-17T11:15:34.441Z,1.90
2023-04-17T11:18:03.082Z,2.10
2023-04-17T11:20:32.366Z,2.20
2023-04-17T11:23:04.172Z,2.40
2023-04-17T11:25:34.392Z,2.00
2023-04-17T11:28:05.335Z,1.90
2023-04-17T11:30:38.191Z,2.50
2023-04-17T11:33:08.038Z,2.00
2023-04-17T11:38:47.359Z,2.10
2023-04-17T11:41:15.751Z,2.10
2023-04-17T11:43:44.553Z,1.90
2023-04-17T11:46:12.502Z,1.50
2023-04-17T11:48:40.939Z,1.80
2023-04-17T11:51:09.166Z,1.60
2023-04-17T11:53:37.245Z,1.70
2023-04-17T11:56:18.362Z,1.80
2023-04-17T12:01:18.075Z,1.70
2023-04-17T12:03:47.904Z,1.60
2023-04-17T12:06:16.330Z,1.80
2023-04-17T12:08:50.281Z,1.90
2023-04-17T12:11:32.752Z,2.40
2023-04-17T12:14:02.432Z,2.70
2023-04-17T12:16:31.560Z,2.20
2023-04-17T12:18:59.596Z,1.70
2023-04-17T12:21:27.517Z,3.80
2023-04-17T12:23:55.584Z,10.60
2023-04-17T12:26:25.285Z,2.30
2023-04-17T12:28:53.226Z,2.30
2023-04-17T12:31:21.189Z,4.10
2023-04-17T12:33:49.151Z,2.10
2023-04-17T12:36:17.067Z,2.00
2023-04-17T12:38:45.225Z,2.20
2023-04-17T12:41:13.147Z,2.10
2023-04-17T12:43:41.025Z,2.00
2023-04-17T12:46:08.984Z,1.70
2023-04-17T12:48:37.782Z,2.00
2023-04-17T12:51:06.095Z,1.90
2023-04-17T12:53:34.173Z,1.90
2023-04-17T12:56:02.175Z,1.90
2023-04-17T12:58:30.370Z,1.50
2023-04-17T13:00:58.260Z,1.80
2023-04-17T13:03:26.642Z,2.20
2023-04-17T13:05:54.754Z,1.70
2023-04-17T13:08:22.644Z,1.90
2023-04-17T13:10:51.608Z,1.50
2023-04-17T13:13:19.842Z,1.60
2023-04-17T13:15:48.573Z,2.00
2023-04-17T13:18:16.568Z,2.00
2023-04-17T13:20:44.680Z,1.90
2023-04-17T13:23:14.419Z,1.50
2023-04-17T13:25:42.480Z,1.70
2023-04-17T13:28:12.142Z,1.70
2023-04-17T13:30:40.131Z,1.70
2023-04-17T13:33:08.616Z,1.90
2023-04-17T13:35:36.822Z,1.70
2023-04-17T13:38:04.717Z,1.80
2023-04-17T13:40:32.628Z,1.60
2023-04-17T13:43:00.577Z,1.70
2023-04-17T13:45:28.610Z,2.00
2023-04-17T13:47:56.551Z,2.30
2023-04-17T13:50:24.524Z,2.10
2023-04-17T13:52:52.457Z,2.20
2023-04-17T13:55:20.635Z,2.10
2023-04-17T13:57:48.784Z,1.80
2023-04-17T14:00:18.431Z,2.20
2023-04-17T14:02:46.576Z,1.60
2023-04-17T14:05:14.739Z,2.80
2023-04-17T14:07:44.414Z,1.90
2023-04-17T14:10:12.455Z,2.10
2023-04-17T14:12:41.127Z,2.90
2023-04-17T14:15:09.673Z,2.10
2023-04-17T14:17:41.055Z,2.30
2023-04-17T14:20:10.799Z,2.70
2023-04-17T14:22:39.124Z,2.30
2023-04-17T14:25:07.326Z,2.10
2023-04-17T14:27:36.353Z,1.60
2023-04-17T14:30:04.851Z,1.60
2023-04-17T14:32:33.572Z,2.20
2023-04-17T14:35:01.763Z,1.70
2023-04-17T14:37:29.993Z,1.90
2023-04-17T14:39:57.931Z,2.00
2023-04-17T14:42:25.932Z,2.10
2023-04-17T14:44:53.839Z,2.30
2023-04-17T14:47:22.005Z,2.40
2023-04-17T14:49:49.992Z,2.10
2023-04-17T14:52:17.949Z,2.10
2023-04-17T14:54:45.831Z,2.50
2023-04-17T14:57:13.741Z,2.70
2023-04-17T14:59:41.839Z,2.20
2023-04-17T15:02:10.646Z,2.20
2023-04-17T15:04:39.051Z,2.70
2023-04-17T15:07:06.895Z,2.40
2023-04-17T15:09:34.914Z,2.80
2023-04-17T15:12:03.105Z,3.40
2023-04-17T15:14:31.627Z,2.30
2023-04-17T15:17:02.441Z,2.50
2023-04-17T15:21:58.563Z,1.90
2023-04-17T15:24:26.688Z,1.90
2023-04-17T15:26:54.885Z,2.70
2023-04-17T15:29:23.197Z,2.30
2023-04-17T15:31:52.766Z,3.50
2023-04-17T15:34:20.856Z,3.30
2023-04-17T15:36:48.964Z,2.90
2023-04-17T15:39:17.376Z,3.40
2023-04-17T15:41:45.624Z,3.70
2023-04-17T15:44:13.699Z,3.10
2023-04-17T15:46:41.686Z,3.30
2023-04-17T15:49:09.695Z,3.10
2023-04-17T15:51:39.035Z,3.10
2023-04-17T15:54:11.967Z,2.70
2023-04-17T15:56:40.284Z,2.60
2023-04-17T15:59:08.280Z,2.80
2023-04-17T16:01:36.349Z,3.10
2023-04-17T16:04:04.461Z,3.00
2023-04-17T16:06:32.695Z,3.30
2023-04-17T16:09:01.194Z,2.70
2023-04-17T16:11:29.329Z,2.80
2023-04-17T16:13:57.386Z,2.60
2023-04-17T16:16:25.511Z,2.70
2023-04-17T16:18:53.478Z,3.00
2023-04-17T16:21:21.332Z,2.60
2023-04-17T16:23:49.705Z,2.40
2023-04-17T16:26:17.686Z,2.20
2023-04-17T16:28:46.497Z,2.90
2023-04-17T16:31:16.906Z,2.60
2023-04-17T16:33:45.423Z,2.60
2023-04-17T16:36:13.356Z,2.80
2023-04-17T16:38:41.312Z,2.90
2023-04-17T16:41:09.658Z,3.20
2023-04-17T16:43:37.642Z,3.30
2023-04-17T16:46:18.439Z,2.90
2023-04-17T16:48:50.963Z,2.70
2023-04-17T16:51:23.882Z,3.30
2023-04-17T16:53:51.917Z,3.40
2023-04-17T16:56:19.865Z,4.50
2023-04-17T16:58:47.713Z,3.60
2023-04-17T17:01:15.734Z,4.80
2023-04-17T17:03:44.956Z,6.00
2023-04-17T17:06:13.142Z,6.30
2023-04-17T17:08:47.633Z,7.80
2023-04-17T17:11:16.612Z,10.30
2023-04-17T17:13:48.720Z,8.60
2023-04-17T17:16:17.048Z,12.90
2023-04-17T17:18:45.620Z,13.20
2023-04-17T17:21:14.128Z,9.00
2023-04-17T17:23:42.173Z,14.80
2023-04-17T17:26:10.058Z,11.20
2023-04-17T17:28:38.395Z,14.70
2023-04-17T17:31:10.918Z,14.60
2023-04-17T17:33:38.826Z,12.30
2023-04-17T17:36:08.961Z,12.30
2023-04-17T17:38:36.864Z,11.70
2023-04-17T17:41:04.935Z,7.10
2023-04-17T17:43:33.471Z,10.60
2023-04-17T17:46:01.798Z,9.20
2023-04-17T17:48:29.983Z,10.50
2023-04-17T17:50:58.051Z,11.40
2023-04-17T17:53:27.207Z,8.20
2023-04-17T17:55:55.845Z,11.30
2023-04-17T17:58:23.860Z,8.90
2023-04-17T18:00:51.823Z,8.20
2023-04-17T18:03:20.783Z,10.20
2023-04-17T18:05:48.996Z,10.70
2023-04-17T18:08:17.122Z,11.70
2023-04-17T18:10:45.004Z,12.30
2023-04-17T18:13:12.928Z,8.60
2023-04-17T18:15:40.998Z,12.00
2023-04-17T18:18:09.190Z,11.20
2023-04-17T18:20:39.154Z,12.10
2023-04-17T18:23:07.302Z,14.00
2023-04-17T18:25:39.254Z,10.00
2023-04-17T18:28:07.576Z,13.80
2023-04-17T18:30:36.579Z,13.60
2023-04-17T18:33:05.041Z,12.60
2023-04-17T18:35:33.014Z,12.50
2023-04-17T18:38:01.138Z,9.70
2023-04-17T18:40:30.726Z,10.50
2023-04-17T18:42:58.671Z,12.10
2023-04-17T18:45:27.984Z,10.70
2023-04-17T18:47:56.189Z,10.10
2023-04-17T18:50:26.933Z,9.00
2023-04-17T18:52:57.260Z,7.50
2023-04-17T18:55:25.373Z,9.60
2023-04-17T18:57:53.572Z,9.20
2023-04-17T19:00:21.697Z,10.90
2023-04-17T19:02:50.133Z,10.80
2023-04-17T19:05:20.573Z,9.20
2023-04-17T19:07:49.141Z,6.70
2023-04-17T19:10:17.502Z,8.80
2023-04-17T19:12:46.806Z,8.10
2023-04-17T19:15:17.551Z,9.10
2023-04-17T19:17:45.787Z,8.50
2023-04-17T19:20:15.852Z,8.30
2023-04-17T19:22:43.816Z,10.00
2023-04-17T19:25:12.016Z,8.10
2023-04-17T19:27:40.394Z,9.70
2023-04-17T19:30:09.207Z,7.80
2023-04-17T19:32:40.131Z,8.50
2023-04-17T19:35:08.615Z,7.60
2023-04-17T19:37:36.710Z,6.20
2023-04-17T19:40:14.116Z,6.30
2023-04-17T19:42:49.774Z,5.20
2023-04-17T19:45:17.956Z,5.40
2023-04-17T19:47:46.212Z,5.60
2023-04-17T19:50:14.258Z,5.80
2023-04-17T19:52:43.359Z,5.80
2023-04-17T19:55:11.527Z,5.10
2023-04-17T19:57:41.620Z,4.80
2023-04-17T20:00:10.829Z,5.10
2023-04-17T20:02:41.956Z,4.80
2023-04-17T20:05:10.534Z,4.70
2023-04-17T20:07:39.084Z,5.30
2023-04-17T20:10:07.799Z,4.80
2023-04-17T20:12:36.157Z,5.20
2023-04-17T20:15:04.431Z,4.40
2023-04-17T20:17:32.512Z,4.80
2023-04-17T20:20:00.507Z,4.60
2023-04-17T20:22:28.380Z,4.60
2023-04-17T20:24:58.221Z,5.00
2023-04-17T20:27:26.612Z,5.00
2023-04-17T20:29:54.595Z,5.10
2023-04-17T20:32:23.288Z,4.70
2023-04-17T20:34:51.285Z,5.20
2023-04-17T20:37:19.920Z,5.50
2023-04-17T20:39:48.877Z,5.30
2023-04-17T20:42:16.917Z,5.70
2023-04-17T20:44:44.819Z,4.90
2023-04-17T20:47:12.717Z,5.10
2023-04-17T20:49:40.718Z,5.20
2023-04-17T20:52:08.682Z,5.30
2023-04-17T20:54:37.282Z,5.50
2023-04-17T20:57:05.389Z,5.30
2023-04-17T20:59:33.463Z,5.10
2023-04-17T21:02:01.472Z,5.00
2023-04-17T21:04:29.603Z,5.00
2023-04-17T21:06:57.730Z,5.70
2023-04-17T21:09:27.835Z,5.50
2023-04-17T21:11:55.795Z,5.50
2023-04-17T21:14:23.737Z,5.00
2023-04-17T21:16:54.517Z,5.60
2023-04-17T21:21:55.696Z,5.20
2023-04-17T21:24:24.082Z,5.10
2023-04-17T21:26:58.264Z,5.10
2023-04-17T21:29:27.437Z,5.40
2023-04-17T21:31:55.792Z,5.30
2023-04-17T21:34:24.448Z,4.70
2023-04-17T21:36:54.887Z,4.50
2023-04-17T21:39:22.868Z,4.90
2023-04-17T21:41:50.793Z,5.20
2023-04-17T21:44:18.928Z,4.80
2023-04-17T21:46:46.971Z,4.90
2023-04-17T21:49:14.983Z,4.90
2023-04-17T21:51:42.932Z,5.10
2023-04-17T21:54:11.135Z,5.30
2023-04-17T21:56:39.162Z,5.50
2023-04-17T21:59:07.256Z,5.80
2023-04-17T22:01:35.230Z,5.80
2023-04-17T22:04:03.260Z,5.50
2023-04-17T22:06:35.295Z,5.60
2023-04-17T22:09:04.289Z,5.30
2023-04-17T22:11:32.521Z,5.20
2023-04-17T22:14:00.870Z,5.00
2023-04-17T22:16:29.295Z,5.30
2023-04-17T22:18:57.260Z,5.00
2023-04-17T22:21:27.069Z,5.10
2023-04-17T22:23:55.063Z,4.70
2023-04-17T22:26:22.950Z,5.10
2023-04-17T22:28:50.855Z,5.30
2023-04-17T22:31:18.802Z,5.50
2023-04-17T22:33:46.767Z,4.70
2023-04-17T22:36:14.746Z,5.40
2023-04-17T22:38:42.779Z,5.00
2023-04-17T22:41:10.955Z,4.60
2023-04-17T22:43:39.117Z,4.80
2023-04-17T22:46:07.079Z,4.40
2023-04-17T22:48:35.362Z,5.20
2023-04-17T22:51:03.814Z,5.40
2023-04-17T22:53:32.047Z,4.90
2023-04-17T22:56:03.773Z,5.30
2023-04-17T22:58:33.496Z,5.20
2023-04-17T23:01:01.521Z,4.90
2023-04-17T23:03:29.933Z,5.30
2023-04-17T23:05:57.866Z,5.00
2023-04-17T23:08:25.944Z,5.10
2023-04-17T23:10:58.789Z,4.50
2023-04-17T23:13:27.714Z,4.60
2023-04-17T23:15:55.720Z,5.20
2023-04-17T23:18:23.742Z,4.50
2023-04-17T23:20:51.640Z,4.80
2023-04-17T23:23:23.631Z,4.80
2023-04-17T23:28:20.623Z,5.00
2023-04-17T23:30:48.612Z,5.80
2023-04-17T23:33:17.012Z,5.40
2023-04-17T23:35:45.087Z,5.70
2023-04-17T23:38:12.965Z,5.20
2023-04-17T23:40:41.588Z,5.20
2023-04-17T23:43:09.544Z,5.50
2023-04-17T23:45:37.551Z,4.60
2023-04-17T23:48:06.337Z,5.20
2023-04-17T23:50:34.412Z,5.20
2023-04-17T23:55:17.769Z,4.60
2023-04-17T23:57:45.952Z,4.50
